sensor_id;sensor_type;location;lat;lon;timestamp;P1;durP1;ratioP1;P2;durP2;ratioP2
74791;SDS011;63319;46.046;17.802;2023-11-21T00:02:09;21.13;;;11.73;;
74791;SDS011;63319;46.046;17.802;2023-11-21T00:05:13;19.65;;;11.15;;
74791;SDS011;63319;46.046;17.802;2023-11-21T00:08:17;16.92;;;10.25;;
74791;SDS011;63319;46.046;17.802;2023-11-21T00:11:21;20.50;;;11.30;;
74791;SDS011;63319;46.046;17.802;2023-11-21T00:14:24;22.47;;;11.30;;
74791;SDS011;63319;46.046;17.802;2023-11-21T00:17:27;32.25;;;17.75;;
74791;SDS011;63319;46.046;17.802;2023-11-21T00:20:31;28.55;;;15.73;;
74791;SDS011;63319;46.046;17.802;2023-11-21T00:23:34;27.40;;;12.47;;
74791;SDS011;63319;46.046;17.802;2023-11-21T00:26:37;19.88;;;12.05;;
74791;SDS011;63319;46.046;17.802;2023-11-21T00:29:40;20.90;;;11.50;;
74791;SDS011;63319;46.046;17.802;2023-11-21T00:32:43;23.73;;;11.85;;
74791;SDS011;63319;46.046;17.802;2023-11-21T00:35:46;23.00;;;12.02;;
74791;SDS011;63319;46.046;17.802;2023-11-21T00:38:50;23.88;;;12.50;;
74791;SDS011;63319;46.046;17.802;2023-11-21T00:41:53;23.30;;;12.13;;
74791;SDS011;63319;46.046;17.802;2023-11-21T00:44:56;20.10;;;11.30;;
74791;SDS011;63319;46.046;17.802;2023-11-21T00:47:59;23.00;;;11.57;;
74791;SDS011;63319;46.046;17.802;2023-11-21T00:51:02;21.25;;;11.18;;
74791;SDS011;63319;46.046;17.802;2023-11-21T00:54:06;21.50;;;12.37;;
74791;SDS011;63319;46.046;17.802;2023-11-21T00:57:09;21.92;;;11.02;;
74791;SDS011;63319;46.046;17.802;2023-11-21T01:00:14;22.52;;;10.75;;
74791;SDS011;63319;46.046;17.802;2023-11-21T01:03:20;25.73;;;12.48;;
74791;SDS011;63319;46.046;17.802;2023-11-21T01:06:23;24.30;;;12.63;;
74791;SDS011;63319;46.046;17.802;2023-11-21T01:09:26;20.60;;;12.05;;
74791;SDS011;63319;46.046;17.802;2023-11-21T01:12:30;20.63;;;10.60;;
74791;SDS011;63319;46.046;17.802;2023-11-21T01:15:34;20.13;;;11.20;;
74791;SDS011;63319;46.046;17.802;2023-11-21T01:18:37;22.90;;;10.63;;
74791;SDS011;63319;46.046;17.802;2023-11-21T01:21:41;19.17;;;10.55;;
74791;SDS011;63319;46.046;17.802;2023-11-21T01:24:45;19.43;;;11.03;;
74791;SDS011;63319;46.046;17.802;2023-11-21T01:27:47;22.00;;;11.25;;
74791;SDS011;63319;46.046;17.802;2023-11-21T01:30:51;22.23;;;11.73;;
74791;SDS011;63319;46.046;17.802;2023-11-21T01:33:54;30.65;;;11.77;;
74791;SDS011;63319;46.046;17.802;2023-11-21T01:36:58;22.83;;;11.50;;
74791;SDS011;63319;46.046;17.802;2023-11-21T01:40:01;24.05;;;12.65;;
74791;SDS011;63319;46.046;17.802;2023-11-21T01:43:08;22.33;;;11.02;;
74791;SDS011;63319;46.046;17.802;2023-11-21T01:46:11;21.07;;;11.53;;
74791;SDS011;63319;46.046;17.802;2023-11-21T01:49:15;18.35;;;9.38;;
74791;SDS011;63319;46.046;17.802;2023-11-21T01:52:18;18.05;;;9.98;;
74791;SDS011;63319;46.046;17.802;2023-11-21T01:55:22;21.77;;;11.50;;
74791;SDS011;63319;46.046;17.802;2023-11-21T01:58:31;23.00;;;12.35;;
74791;SDS011;63319;46.046;17.802;2023-11-21T02:01:35;27.33;;;13.35;;
74791;SDS011;63319;46.046;17.802;2023-11-21T02:04:38;26.38;;;15.00;;
74791;SDS011;63319;46.046;17.802;2023-11-21T02:07:42;47.95;;;17.08;;
74791;SDS011;63319;46.046;17.802;2023-11-21T02:10:47;53.95;;;16.33;;
74791;SDS011;63319;46.046;17.802;2023-11-21T02:13:50;34.42;;;17.45;;
74791;SDS011;63319;46.046;17.802;2023-11-21T02:16:57;29.83;;;16.40;;
74791;SDS011;63319;46.046;17.802;2023-11-21T02:20:00;32.10;;;17.15;;
74791;SDS011;63319;46.046;17.802;2023-11-21T02:23:03;32.55;;;16.33;;
74791;SDS011;63319;46.046;17.802;2023-11-21T02:26:07;31.03;;;16.60;;
74791;SDS011;63319;46.046;17.802;2023-11-21T02:29:12;29.00;;;15.23;;
74791;SDS011;63319;46.046;17.802;2023-11-21T02:32:15;29.20;;;16.30;;
74791;SDS011;63319;46.046;17.802;2023-11-21T02:35:21;31.40;;;14.93;;
74791;SDS011;63319;46.046;17.802;2023-11-21T02:38:24;25.23;;;14.80;;
74791;SDS011;63319;46.046;17.802;2023-11-21T02:41:28;25.73;;;13.63;;
74791;SDS011;63319;46.046;17.802;2023-11-21T02:44:31;22.40;;;13.90;;
74791;SDS011;63319;46.046;17.802;2023-11-21T02:47:34;23.33;;;13.00;;
74791;SDS011;63319;46.046;17.802;2023-11-21T02:50:37;35.03;;;19.65;;
74791;SDS011;63319;46.046;17.802;2023-11-21T02:53:40;25.83;;;15.60;;
74791;SDS011;63319;46.046;17.802;2023-11-21T02:56:44;27.80;;;15.13;;
74791;SDS011;63319;46.046;17.802;2023-11-21T02:59:46;23.35;;;13.43;;
74791;SDS011;63319;46.046;17.802;2023-11-21T03:02:49;29.15;;;15.52;;
74791;SDS011;63319;46.046;17.802;2023-11-21T03:05:53;27.15;;;13.75;;
74791;SDS011;63319;46.046;17.802;2023-11-21T03:08:56;25.20;;;14.35;;
74791;SDS011;63319;46.046;17.802;2023-11-21T03:11:59;28.75;;;16.30;;
74791;SDS011;63319;46.046;17.802;2023-11-21T03:15:02;36.17;;;18.13;;
74791;SDS011;63319;46.046;17.802;2023-11-21T03:18:06;34.40;;;18.47;;
74791;SDS011;63319;46.046;17.802;2023-11-21T03:21:11;32.95;;;17.25;;
74791;SDS011;63319;46.046;17.802;2023-11-21T03:24:15;28.40;;;17.58;;
74791;SDS011;63319;46.046;17.802;2023-11-21T03:27:22;25.50;;;14.57;;
74791;SDS011;63319;46.046;17.802;2023-11-21T03:30:25;26.77;;;16.42;;
74791;SDS011;63319;46.046;17.802;2023-11-21T03:33:28;28.83;;;16.45;;
74791;SDS011;63319;46.046;17.802;2023-11-21T03:36:31;24.98;;;15.18;;
74791;SDS011;63319;46.046;17.802;2023-11-21T03:39:34;28.88;;;15.77;;
74791;SDS011;63319;46.046;17.802;2023-11-21T03:42:38;32.78;;;17.55;;
74791;SDS011;63319;46.046;17.802;2023-11-21T03:45:42;26.25;;;14.52;;
74791;SDS011;63319;46.046;17.802;2023-11-21T03:48:45;27.37;;;15.70;;
74791;SDS011;63319;46.046;17.802;2023-11-21T03:51:49;33.40;;;16.73;;
74791;SDS011;63319;46.046;17.802;2023-11-21T03:54:53;35.55;;;21.33;;
74791;SDS011;63319;46.046;17.802;2023-11-21T03:57:56;30.63;;;19.00;;
74791;SDS011;63319;46.046;17.802;2023-11-21T04:01:00;30.55;;;17.17;;
74791;SDS011;63319;46.046;17.802;2023-11-21T04:04:04;37.13;;;18.08;;
74791;SDS011;63319;46.046;17.802;2023-11-21T04:07:07;31.88;;;17.80;;
74791;SDS011;63319;46.046;17.802;2023-11-21T04:10:10;36.05;;;16.85;;
74791;SDS011;63319;46.046;17.802;2023-11-21T04:13:15;35.90;;;17.90;;
74791;SDS011;63319;46.046;17.802;2023-11-21T04:16:19;29.50;;;17.33;;
74791;SDS011;63319;46.046;17.802;2023-11-21T04:19:21;30.53;;;15.43;;
74791;SDS011;63319;46.046;17.802;2023-11-21T04:22:25;31.92;;;16.55;;
74791;SDS011;63319;46.046;17.802;2023-11-21T04:25:28;32.13;;;16.52;;
74791;SDS011;63319;46.046;17.802;2023-11-21T04:28:31;31.47;;;18.70;;
74791;SDS011;63319;46.046;17.802;2023-11-21T04:31:34;32.75;;;18.35;;
74791;SDS011;63319;46.046;17.802;2023-11-21T04:34:37;32.97;;;17.10;;
74791;SDS011;63319;46.046;17.802;2023-11-21T04:37:40;28.90;;;16.65;;
74791;SDS011;63319;46.046;17.802;2023-11-21T04:40:43;30.45;;;16.63;;
74791;SDS011;63319;46.046;17.802;2023-11-21T04:43:47;27.98;;;15.60;;
74791;SDS011;63319;46.046;17.802;2023-11-21T04:46:50;27.35;;;16.00;;
74791;SDS011;63319;46.046;17.802;2023-11-21T04:49:54;29.53;;;16.93;;
74791;SDS011;63319;46.046;17.802;2023-11-21T04:52:57;30.98;;;19.17;;
74791;SDS011;63319;46.046;17.802;2023-11-21T04:56:00;34.03;;;20.40;;
74791;SDS011;63319;46.046;17.802;2023-11-21T04:59:03;27.03;;;16.40;;
74791;SDS011;63319;46.046;17.802;2023-11-21T05:02:07;31.15;;;16.10;;
74791;SDS011;63319;46.046;17.802;2023-11-21T05:05:16;32.03;;;16.67;;
74791;SDS011;63319;46.046;17.802;2023-11-21T05:08:19;27.77;;;15.98;;
74791;SDS011;63319;46.046;17.802;2023-11-21T05:11:28;23.77;;;14.63;;
74791;SDS011;63319;46.046;17.802;2023-11-21T05:14:34;29.90;;;15.95;;
74791;SDS011;63319;46.046;17.802;2023-11-21T05:17:38;30.67;;;17.83;;
74791;SDS011;63319;46.046;17.802;2023-11-21T05:21:00;31.50;;;19.50;;
74791;SDS011;63319;46.046;17.802;2023-11-21T05:24:04;76.78;;;30.27;;
74791;SDS011;63319;46.046;17.802;2023-11-21T05:27:08;65.57;;;27.33;;
74791;SDS011;63319;46.046;17.802;2023-11-21T05:30:12;43.07;;;19.90;;
74791;SDS011;63319;46.046;17.802;2023-11-21T05:33:16;41.17;;;20.30;;
74791;SDS011;63319;46.046;17.802;2023-11-21T05:36:20;37.70;;;20.83;;
74791;SDS011;63319;46.046;17.802;2023-11-21T05:39:23;29.95;;;16.98;;
74791;SDS011;63319;46.046;17.802;2023-11-21T05:42:27;20.80;;;12.40;;
74791;SDS011;63319;46.046;17.802;2023-11-21T05:45:30;35.95;;;17.48;;
74791;SDS011;63319;46.046;17.802;2023-11-21T05:48:33;24.80;;;12.98;;
74791;SDS011;63319;46.046;17.802;2023-11-21T05:51:37;22.73;;;12.00;;
74791;SDS011;63319;46.046;17.802;2023-11-21T05:54:41;24.90;;;10.85;;
74791;SDS011;63319;46.046;17.802;2023-11-21T05:57:44;14.63;;;8.18;;
74791;SDS011;63319;46.046;17.802;2023-11-21T06:00:47;15.53;;;8.80;;
74791;SDS011;63319;46.046;17.802;2023-11-21T06:03:50;14.93;;;7.20;;
74791;SDS011;63319;46.046;17.802;2023-11-21T06:06:54;15.38;;;7.65;;
74791;SDS011;63319;46.046;17.802;2023-11-21T06:09:57;22.65;;;11.60;;
74791;SDS011;63319;46.046;17.802;2023-11-21T06:13:00;13.85;;;8.27;;
74791;SDS011;63319;46.046;17.802;2023-11-21T06:16:06;15.18;;;8.30;;
74791;SDS011;63319;46.046;17.802;2023-11-21T06:19:09;12.85;;;7.10;;
74791;SDS011;63319;46.046;17.802;2023-11-21T06:22:12;25.00;;;13.73;;
74791;SDS011;63319;46.046;17.802;2023-11-21T06:25:16;24.50;;;11.57;;
74791;SDS011;63319;46.046;17.802;2023-11-21T06:28:20;19.02;;;9.48;;
74791;SDS011;63319;46.046;17.802;2023-11-21T06:31:23;15.77;;;8.77;;
74791;SDS011;63319;46.046;17.802;2023-11-21T06:34:26;22.42;;;10.77;;
74791;SDS011;63319;46.046;17.802;2023-11-21T06:37:30;21.63;;;11.63;;
74791;SDS011;63319;46.046;17.802;2023-11-21T06:40:34;15.82;;;8.05;;
74791;SDS011;63319;46.046;17.802;2023-11-21T06:43:38;42.95;;;24.20;;
74791;SDS011;63319;46.046;17.802;2023-11-21T06:46:41;21.83;;;11.73;;
74791;SDS011;63319;46.046;17.802;2023-11-21T06:49:45;28.85;;;17.08;;
74791;SDS011;63319;46.046;17.802;2023-11-21T06:52:51;30.80;;;16.60;;
74791;SDS011;63319;46.046;17.802;2023-11-21T06:55:54;28.73;;;15.35;;
74791;SDS011;63319;46.046;17.802;2023-11-21T06:58:57;20.58;;;11.15;;
74791;SDS011;63319;46.046;17.802;2023-11-21T07:02:00;22.97;;;10.77;;
74791;SDS011;63319;46.046;17.802;2023-11-21T07:05:04;31.73;;;17.95;;
74791;SDS011;63319;46.046;17.802;2023-11-21T07:08:08;18.77;;;9.85;;
74791;SDS011;63319;46.046;17.802;2023-11-21T07:11:12;11.07;;;6.85;;
74791;SDS011;63319;46.046;17.802;2023-11-21T07:14:15;14.63;;;5.50;;
74791;SDS011;63319;46.046;17.802;2023-11-21T07:17:19;13.23;;;7.45;;
74791;SDS011;63319;46.046;17.802;2023-11-21T07:20:23;18.65;;;11.15;;
74791;SDS011;63319;46.046;17.802;2023-11-21T07:23:26;25.67;;;13.70;;
74791;SDS011;63319;46.046;17.802;2023-11-21T07:26:29;29.23;;;16.83;;
74791;SDS011;63319;46.046;17.802;2023-11-21T07:29:33;30.58;;;14.55;;
74791;SDS011;63319;46.046;17.802;2023-11-21T07:32:37;21.63;;;10.67;;
74791;SDS011;63319;46.046;17.802;2023-11-21T07:35:43;24.60;;;11.65;;
74791;SDS011;63319;46.046;17.802;2023-11-21T07:38:46;17.55;;;10.45;;
74791;SDS011;63319;46.046;17.802;2023-11-21T07:41:50;21.30;;;10.38;;
74791;SDS011;63319;46.046;17.802;2023-11-21T07:44:54;22.13;;;10.02;;
74791;SDS011;63319;46.046;17.802;2023-11-21T07:47:56;20.98;;;10.38;;
74791;SDS011;63319;46.046;17.802;2023-11-21T07:51:01;21.00;;;9.68;;
74791;SDS011;63319;46.046;17.802;2023-11-21T07:54:08;20.83;;;9.60;;
74791;SDS011;63319;46.046;17.802;2023-11-21T07:57:11;13.85;;;6.47;;
74791;SDS011;63319;46.046;17.802;2023-11-21T08:00:16;16.30;;;5.63;;
74791;SDS011;63319;46.046;17.802;2023-11-21T08:03:19;9.67;;;5.10;;
74791;SDS011;63319;46.046;17.802;2023-11-21T08:06:23;14.38;;;4.82;;
74791;SDS011;63319;46.046;17.802;2023-11-21T08:09:28;11.95;;;3.92;;
74791;SDS011;63319;46.046;17.802;2023-11-21T08:12:31;9.88;;;4.50;;
74791;SDS011;63319;46.046;17.802;2023-11-21T08:15:34;14.82;;;5.15;;
74791;SDS011;63319;46.046;17.802;2023-11-21T08:18:39;11.88;;;6.00;;
74791;SDS011;63319;46.046;17.802;2023-11-21T08:21:43;15.23;;;6.00;;
74791;SDS011;63319;46.046;17.802;2023-11-21T08:24:48;23.50;;;11.30;;
74791;SDS011;63319;46.046;17.802;2023-11-21T08:27:51;22.77;;;12.85;;
74791;SDS011;63319;46.046;17.802;2023-11-21T08:30:54;12.23;;;7.43;;
74791;SDS011;63319;46.046;17.802;2023-11-21T08:33:58;10.57;;;5.20;;
74791;SDS011;63319;46.046;17.802;2023-11-21T08:37:01;9.88;;;4.68;;
74791;SDS011;63319;46.046;17.802;2023-11-21T08:40:04;10.50;;;3.92;;
74791;SDS011;63319;46.046;17.802;2023-11-21T08:43:12;9.05;;;3.92;;
74791;SDS011;63319;46.046;17.802;2023-11-21T08:46:16;7.53;;;4.20;;
74791;SDS011;63319;46.046;17.802;2023-11-21T08:49:20;9.05;;;4.60;;
74791;SDS011;63319;46.046;17.802;2023-11-21T08:52:23;11.95;;;5.07;;
74791;SDS011;63319;46.046;17.802;2023-11-21T08:55:26;12.97;;;6.53;;
74791;SDS011;63319;46.046;17.802;2023-11-21T08:58:31;10.52;;;5.50;;
74791;SDS011;63319;46.046;17.802;2023-11-21T09:01:39;14.05;;;6.35;;
74791;SDS011;63319;46.046;17.802;2023-11-21T09:04:43;14.63;;;5.27;;
74791;SDS011;63319;46.046;17.802;2023-11-21T09:07:49;17.65;;;5.68;;
74791;SDS011;63319;46.046;17.802;2023-11-21T09:10:52;11.57;;;5.13;;
74791;SDS011;63319;46.046;17.802;2023-11-21T09:13:55;11.20;;;4.93;;
74791;SDS011;63319;46.046;17.802;2023-11-21T09:17:00;11.77;;;5.05;;
74791;SDS011;63319;46.046;17.802;2023-11-21T09:20:04;14.23;;;4.78;;
74791;SDS011;63319;46.046;17.802;2023-11-21T09:23:09;11.35;;;5.50;;
74791;SDS011;63319;46.046;17.802;2023-11-21T09:26:13;13.50;;;5.20;;
74791;SDS011;63319;46.046;17.802;2023-11-21T09:29:18;13.65;;;4.85;;
74791;SDS011;63319;46.046;17.802;2023-11-21T09:32:21;15.77;;;5.93;;
74791;SDS011;63319;46.046;17.802;2023-11-21T09:35:24;20.10;;;7.10;;
74791;SDS011;63319;46.046;17.802;2023-11-21T09:38:28;18.25;;;7.10;;
74791;SDS011;63319;46.046;17.802;2023-11-21T09:41:34;13.82;;;6.07;;
74791;SDS011;63319;46.046;17.802;2023-11-21T09:48:11;14.77;;;6.60;;
74791;SDS011;63319;46.046;17.802;2023-11-21T09:51:14;15.55;;;5.97;;
74791;SDS011;63319;46.046;17.802;2023-11-21T09:54:18;12.55;;;6.20;;
74791;SDS011;63319;46.046;17.802;2023-11-21T09:57:24;12.63;;;5.13;;
74791;SDS011;63319;46.046;17.802;2023-11-21T10:00:28;11.93;;;5.18;;
74791;SDS011;63319;46.046;17.802;2023-11-21T10:03:35;14.52;;;4.57;;
74791;SDS011;63319;46.046;17.802;2023-11-21T10:06:41;14.50;;;5.87;;
74791;SDS011;63319;46.046;17.802;2023-11-21T10:09:45;13.27;;;6.10;;
74791;SDS011;63319;46.046;17.802;2023-11-21T10:12:50;12.68;;;5.03;;
74791;SDS011;63319;46.046;17.802;2023-11-21T10:15:55;11.02;;;5.47;;
74791;SDS011;63319;46.046;17.802;2023-11-21T10:19:00;12.38;;;5.50;;
74791;SDS011;63319;46.046;17.802;2023-11-21T10:22:16;12.68;;;5.00;;
74791;SDS011;63319;46.046;17.802;2023-11-21T10:25:20;9.77;;;4.30;;
74791;SDS011;63319;46.046;17.802;2023-11-21T10:28:23;12.03;;;4.80;;
74791;SDS011;63319;46.046;17.802;2023-11-21T10:31:26;14.98;;;4.80;;
74791;SDS011;63319;46.046;17.802;2023-11-21T10:34:30;14.13;;;5.00;;
74791;SDS011;63319;46.046;17.802;2023-11-21T10:37:34;9.17;;;4.13;;
74791;SDS011;63319;46.046;17.802;2023-11-21T10:40:37;13.48;;;5.20;;
74791;SDS011;63319;46.046;17.802;2023-11-21T10:43:42;15.00;;;5.22;;
74791;SDS011;63319;46.046;17.802;2023-11-21T10:46:48;11.85;;;4.35;;
74791;SDS011;63319;46.046;17.802;2023-11-21T10:49:54;12.52;;;4.63;;
74791;SDS011;63319;46.046;17.802;2023-11-21T10:52:57;11.07;;;5.00;;
74791;SDS011;63319;46.046;17.802;2023-11-21T10:56:01;13.60;;;5.13;;
74791;SDS011;63319;46.046;17.802;2023-11-21T10:59:09;10.03;;;4.27;;
74791;SDS011;63319;46.046;17.802;2023-11-21T11:02:25;14.15;;;5.60;;
74791;SDS011;63319;46.046;17.802;2023-11-21T11:05:31;12.23;;;4.63;;
74791;SDS011;63319;46.046;17.802;2023-11-21T11:08:35;9.73;;;3.33;;
74791;SDS011;63319;46.046;17.802;2023-11-21T11:11:40;6.55;;;2.53;;
74791;SDS011;63319;46.046;17.802;2023-11-21T11:14:44;6.45;;;2.80;;
74791;SDS011;63319;46.046;17.802;2023-11-21T11:17:47;11.10;;;3.97;;
74791;SDS011;63319;46.046;17.802;2023-11-21T11:20:51;9.57;;;3.33;;
74791;SDS011;63319;46.046;17.802;2023-11-21T11:24:05;8.05;;;3.13;;
74791;SDS011;63319;46.046;17.802;2023-11-21T11:34:06;11.68;;;3.85;;
74791;SDS011;63319;46.046;17.802;2023-11-21T11:37:18;8.75;;;3.22;;
74791;SDS011;63319;46.046;17.802;2023-11-21T11:40:22;9.93;;;4.60;;
74791;SDS011;63319;46.046;17.802;2023-11-21T11:43:27;11.50;;;4.20;;
74791;SDS011;63319;46.046;17.802;2023-11-21T11:46:44;13.02;;;4.88;;
74791;SDS011;63319;46.046;17.802;2023-11-21T11:50:07;10.90;;;4.00;;
74791;SDS011;63319;46.046;17.802;2023-11-21T11:53:20;10.75;;;3.70;;
74791;SDS011;63319;46.046;17.802;2023-11-21T11:56:28;12.98;;;4.60;;
74791;SDS011;63319;46.046;17.802;2023-11-21T12:03:28;12.07;;;5.40;;
74791;SDS011;63319;46.046;17.802;2023-11-21T12:06:34;11.40;;;4.45;;
74791;SDS011;63319;46.046;17.802;2023-11-21T12:09:38;9.27;;;4.20;;
74791;SDS011;63319;46.046;17.802;2023-11-21T12:12:42;8.37;;;3.60;;
74791;SDS011;63319;46.046;17.802;2023-11-21T12:15:49;12.75;;;4.65;;
74791;SDS011;63319;46.046;17.802;2023-11-21T12:18:53;10.38;;;4.00;;
74791;SDS011;63319;46.046;17.802;2023-11-21T12:21:56;10.77;;;4.60;;
74791;SDS011;63319;46.046;17.802;2023-11-21T12:25:00;11.30;;;5.70;;
74791;SDS011;63319;46.046;17.802;2023-11-21T12:28:03;8.13;;;4.05;;
74791;SDS011;63319;46.046;17.802;2023-11-21T12:31:06;12.27;;;5.30;;
74791;SDS011;63319;46.046;17.802;2023-11-21T12:34:23;10.87;;;4.60;;
74791;SDS011;63319;46.046;17.802;2023-11-21T12:37:26;9.73;;;4.55;;
74791;SDS011;63319;46.046;17.802;2023-11-21T12:40:29;12.07;;;5.40;;
74791;SDS011;63319;46.046;17.802;2023-11-21T12:43:33;10.40;;;4.83;;
74791;SDS011;63319;46.046;17.802;2023-11-21T12:46:40;6.65;;;3.28;;
74791;SDS011;63319;46.046;17.802;2023-11-21T12:49:45;10.98;;;5.22;;
74791;SDS011;63319;46.046;17.802;2023-11-21T12:52:49;8.13;;;3.00;;
74791;SDS011;63319;46.046;17.802;2023-11-21T12:55:55;10.75;;;4.10;;
74791;SDS011;63319;46.046;17.802;2023-11-21T12:59:00;19.08;;;6.40;;
74791;SDS011;63319;46.046;17.802;2023-11-21T13:02:07;16.35;;;7.00;;
74791;SDS011;63319;46.046;17.802;2023-11-21T13:05:12;9.73;;;5.03;;
74791;SDS011;63319;46.046;17.802;2023-11-21T13:08:24;7.13;;;4.05;;
74791;SDS011;63319;46.046;17.802;2023-11-21T13:11:29;11.15;;;5.28;;
74791;SDS011;63319;46.046;17.802;2023-11-21T13:14:35;13.93;;;5.53;;
74791;SDS011;63319;46.046;17.802;2023-11-21T13:17:38;10.60;;;4.43;;
74791;SDS011;63319;46.046;17.802;2023-11-21T13:20:41;10.02;;;4.78;;
74791;SDS011;63319;46.046;17.802;2023-11-21T13:23:45;10.68;;;5.85;;
74791;SDS011;63319;46.046;17.802;2023-11-21T13:26:51;12.32;;;5.75;;
74791;SDS011;63319;46.046;17.802;2023-11-21T13:29:54;13.65;;;6.70;;
74791;SDS011;63319;46.046;17.802;2023-11-21T13:32:57;17.95;;;9.80;;
74791;SDS011;63319;46.046;17.802;2023-11-21T13:36:05;31.60;;;15.87;;
74791;SDS011;63319;46.046;17.802;2023-11-21T13:39:10;39.20;;;18.27;;
74791;SDS011;63319;46.046;17.802;2023-11-21T13:42:20;31.45;;;15.25;;
74791;SDS011;63319;46.046;17.802;2023-11-21T13:45:27;39.27;;;20.23;;
74791;SDS011;63319;46.046;17.802;2023-11-21T13:48:32;30.15;;;14.02;;
74791;SDS011;63319;46.046;17.802;2023-11-21T13:51:51;19.58;;;8.85;;
74791;SDS011;63319;46.046;17.802;2023-11-21T13:54:58;21.10;;;10.13;;
74791;SDS011;63319;46.046;17.802;2023-11-21T13:58:03;14.38;;;5.60;;
74791;SDS011;63319;46.046;17.802;2023-11-21T14:01:07;15.27;;;6.35;;
74791;SDS011;63319;46.046;17.802;2023-11-21T14:04:27;11.27;;;4.18;;
74791;SDS011;63319;46.046;17.802;2023-11-21T14:07:33;12.20;;;4.83;;
74791;SDS011;63319;46.046;17.802;2023-11-21T14:10:39;9.18;;;4.25;;
74791;SDS011;63319;46.046;17.802;2023-11-21T14:13:45;9.77;;;3.78;;
74791;SDS011;63319;46.046;17.802;2023-11-21T14:16:51;9.97;;;5.37;;
74791;SDS011;63319;46.046;17.802;2023-11-21T14:19:56;11.55;;;4.18;;
74791;SDS011;63319;46.046;17.802;2023-11-21T14:22:59;10.30;;;4.50;;
74791;SDS011;63319;46.046;17.802;2023-11-21T14:26:02;7.88;;;3.50;;
74791;SDS011;63319;46.046;17.802;2023-11-21T14:29:05;7.95;;;4.35;;
74791;SDS011;63319;46.046;17.802;2023-11-21T14:32:09;11.40;;;4.57;;
74791;SDS011;63319;46.046;17.802;2023-11-21T14:35:12;10.73;;;5.03;;
74791;SDS011;63319;46.046;17.802;2023-11-21T14:38:15;7.87;;;4.13;;
74791;SDS011;63319;46.046;17.802;2023-11-21T14:41:19;8.15;;;4.20;;
74791;SDS011;63319;46.046;17.802;2023-11-21T14:44:22;8.45;;;3.40;;
74791;SDS011;63319;46.046;17.802;2023-11-21T14:47:29;6.90;;;3.27;;
74791;SDS011;63319;46.046;17.802;2023-11-21T14:50:33;7.03;;;3.28;;
74791;SDS011;63319;46.046;17.802;2023-11-21T14:53:45;13.85;;;6.22;;
74791;SDS011;63319;46.046;17.802;2023-11-21T14:56:57;19.90;;;9.50;;
74791;SDS011;63319;46.046;17.802;2023-11-21T15:00:00;11.70;;;6.68;;
74791;SDS011;63319;46.046;17.802;2023-11-21T15:03:04;15.15;;;10.35;;
74791;SDS011;63319;46.046;17.802;2023-11-21T15:06:09;9.98;;;6.13;;
74791;SDS011;63319;46.046;17.802;2023-11-21T15:09:32;7.83;;;3.90;;
74791;SDS011;63319;46.046;17.802;2023-11-21T15:12:45;8.65;;;4.25;;
74791;SDS011;63319;46.046;17.802;2023-11-21T15:15:48;16.15;;;7.97;;
74791;SDS011;63319;46.046;17.802;2023-11-21T15:18:53;19.03;;;9.00;;
74791;SDS011;63319;46.046;17.802;2023-11-21T15:21:56;18.08;;;9.50;;
74791;SDS011;63319;46.046;17.802;2023-11-21T15:25:00;19.17;;;10.93;;
74791;SDS011;63319;46.046;17.802;2023-11-21T15:28:10;26.65;;;12.95;;
74791;SDS011;63319;46.046;17.802;2023-11-21T15:31:14;26.58;;;13.48;;
74791;SDS011;63319;46.046;17.802;2023-11-21T15:34:19;37.97;;;17.27;;
74791;SDS011;63319;46.046;17.802;2023-11-21T15:37:22;36.80;;;19.08;;
74791;SDS011;63319;46.046;17.802;2023-11-21T15:40:27;29.50;;;14.60;;
74791;SDS011;63319;46.046;17.802;2023-11-21T15:43:31;21.15;;;11.40;;
74791;SDS011;63319;46.046;17.802;2023-11-21T15:46:34;16.83;;;9.32;;
74791;SDS011;63319;46.046;17.802;2023-11-21T15:49:39;18.87;;;9.77;;
74791;SDS011;63319;46.046;17.802;2023-11-21T15:52:42;21.48;;;11.32;;
74791;SDS011;63319;46.046;17.802;2023-11-21T15:55:59;19.55;;;11.15;;
74791;SDS011;63319;46.046;17.802;2023-11-21T15:59:02;26.02;;;12.52;;
74791;SDS011;63319;46.046;17.802;2023-11-21T16:02:06;28.45;;;13.75;;
74791;SDS011;63319;46.046;17.802;2023-11-21T16:05:10;22.67;;;10.52;;
74791;SDS011;63319;46.046;17.802;2023-11-21T16:08:16;18.55;;;9.57;;
74791;SDS011;63319;46.046;17.802;2023-11-21T16:11:20;15.97;;;9.27;;
74791;SDS011;63319;46.046;17.802;2023-11-21T16:14:23;22.20;;;9.68;;
74791;SDS011;63319;46.046;17.802;2023-11-21T16:17:29;16.45;;;9.35;;
74791;SDS011;63319;46.046;17.802;2023-11-21T16:20:32;16.90;;;9.47;;
74791;SDS011;63319;46.046;17.802;2023-11-21T16:23:36;19.00;;;10.02;;
74791;SDS011;63319;46.046;17.802;2023-11-21T16:26:43;26.67;;;15.48;;
74791;SDS011;63319;46.046;17.802;2023-11-21T16:29:47;24.80;;;13.20;;
74791;SDS011;63319;46.046;17.802;2023-11-21T16:32:51;20.63;;;11.13;;
74791;SDS011;63319;46.046;17.802;2023-11-21T16:35:54;24.02;;;12.07;;
74791;SDS011;63319;46.046;17.802;2023-11-21T16:38:57;26.23;;;12.20;;
74791;SDS011;63319;46.046;17.802;2023-11-21T16:42:01;20.70;;;10.37;;
74791;SDS011;63319;46.046;17.802;2023-11-21T16:45:04;25.85;;;12.30;;
74791;SDS011;63319;46.046;17.802;2023-11-21T16:48:08;26.73;;;14.75;;
74791;SDS011;63319;46.046;17.802;2023-11-21T16:51:13;32.47;;;18.70;;
74791;SDS011;63319;46.046;17.802;2023-11-21T16:54:20;33.95;;;21.17;;
74791;SDS011;63319;46.046;17.802;2023-11-21T16:57:23;55.78;;;34.95;;
74791;SDS011;63319;46.046;17.802;2023-11-21T17:00:26;49.00;;;30.00;;
74791;SDS011;63319;46.046;17.802;2023-11-21T17:03:29;42.58;;;25.52;;
74791;SDS011;63319;46.046;17.802;2023-11-21T17:06:34;35.45;;;18.63;;
74791;SDS011;63319;46.046;17.802;2023-11-21T17:09:38;31.02;;;15.32;;
74791;SDS011;63319;46.046;17.802;2023-11-21T17:12:41;25.90;;;13.23;;
74791;SDS011;63319;46.046;17.802;2023-11-21T17:15:44;25.80;;;13.77;;
74791;SDS011;63319;46.046;17.802;2023-11-21T17:18:49;26.60;;;14.95;;
74791;SDS011;63319;46.046;17.802;2023-11-21T17:21:52;23.17;;;14.73;;
74791;SDS011;63319;46.046;17.802;2023-11-21T17:24:56;23.02;;;13.85;;
74791;SDS011;63319;46.046;17.802;2023-11-21T17:28:00;24.85;;;14.27;;
74791;SDS011;63319;46.046;17.802;2023-11-21T17:31:04;22.30;;;13.75;;
74791;SDS011;63319;46.046;17.802;2023-11-21T17:34:07;17.42;;;10.38;;
74791;SDS011;63319;46.046;17.802;2023-11-21T17:37:10;18.55;;;10.73;;
74791;SDS011;63319;46.046;17.802;2023-11-21T17:40:14;20.25;;;10.43;;
74791;SDS011;63319;46.046;17.802;2023-11-21T17:43:18;33.57;;;14.17;;
74791;SDS011;63319;46.046;17.802;2023-11-21T17:46:21;34.60;;;15.75;;
74791;SDS011;63319;46.046;17.802;2023-11-21T17:49:25;78.70;;;35.45;;
74791;SDS011;63319;46.046;17.802;2023-11-21T17:52:31;57.57;;;28.83;;
74791;SDS011;63319;46.046;17.802;2023-11-21T17:55:36;36.40;;;16.90;;
74791;SDS011;63319;46.046;17.802;2023-11-21T17:58:39;39.20;;;21.10;;
74791;SDS011;63319;46.046;17.802;2023-11-21T18:01:42;31.65;;;16.75;;
74791;SDS011;63319;46.046;17.802;2023-11-21T18:04:45;35.53;;;18.42;;
74791;SDS011;63319;46.046;17.802;2023-11-21T18:07:49;22.45;;;11.90;;